Time;durP1;ratioP1;P1;durP2;ratioP2;P2;SDS_P1;SDS_P2;PMS_P1;PMS_P2;Temp;Humidity;BMP_temperature;BMP_pressure;BME280_temperature;BME280_humidity;BME280_pressure;Samples;Min_cycle;Max_cycle;Signal;HPM_P1;HPM_P2
2021/10/22 00:02:20;;;;;;;13.23;5.70;;;7.90;99.90;;;;;;5032793;28;20179;-72
2021/10/22 00:04:46;;;;;;;13.90;5.63;;;7.90;99.90;;;;;;5031848;28;20611;-72
2021/10/22 00:07:11;;;;;;;19.67;6.00;;;7.90;99.90;;;;;;5032501;28;20192;-72
2021/10/22 00:09:37;;;;;;;14.87;5.43;;;7.90;99.90;;;;;;5032498;28;20250;-72
2021/10/22 00:12:03;;;;;;;18.23;5.10;;;8.00;99.90;;;;;;5032382;28;20280;-71
2021/10/22 00:14:28;;;;;;;11.93;5.10;;;8.00;99.90;;;;;;5032799;28;20160;-71
2021/10/22 00:16:54;;;;;;;11.47;5.70;;;8.00;99.90;;;;;;5032854;28;20202;-72
2021/10/22 00:19:19;;;;;;;10.00;5.30;;;8.00;99.90;;;;;;5032400;28;20175;-73
2021/10/22 00:21:45;;;;;;;15.10;5.80;;;8.00;99.90;;;;;;5024500;28;20670;-72
2021/10/22 00:24:11;;;;;;;11.83;4.83;;;8.00;99.90;;;;;;5027693;28;20625;-72
2021/10/22 00:26:37;;;;;;;17.07;5.13;;;8.00;99.90;;;;;;5032316;28;20255;-72
2021/10/22 00:29:03;;;;;;;15.83;5.20;;;8.00;99.90;;;;;;5032476;28;20222;-72
2021/10/22 00:31:28;;;;;;;15.20;5.57;;;8.10;99.90;;;;;;5031920;28;20239;-71
2021/10/22 00:33:54;;;;;;;15.17;4.67;;;8.10;99.90;;;;;;5032456;28;20423;-72
2021/10/22 00:36:19;;;;;;;9.93;4.17;;;8.10;99.90;;;;;;5032236;28;20226;-72
2021/10/22 00:38:45;;;;;;;12.97;4.33;;;8.00;99.90;;;;;;5024379;28;20173;-72
2021/10/22 00:41:11;;;;;;;9.43;4.50;;;8.10;99.90;;;;;;5027128;28;20185;-72
2021/10/22 00:43:37;;;;;;;9.70;4.53;;;8.10;99.90;;;;;;5032298;28;20175;-71
2021/10/22 00:46:02;;;;;;;10.80;4.70;;;8.10;99.90;;;;;;5032600;28;20164;-72
2021/10/22 00:48:28;;;;;;;11.70;4.80;;;8.10;99.90;;;;;;5032553;28;20169;-72
2021/10/22 00:50:59;;;;;;;11.40;4.37;;;8.00;99.90;;;;;;5032081;28;20200;-71
2021/10/22 00:53:26;;;;;;;15.03;4.23;;;8.00;99.90;;;;;;5032086;28;20161;-72
2021/10/22 00:55:52;;;;;;;14.00;5.83;;;8.00;99.90;;;;;;5031180;28;20447;-72
2021/10/22 00:58:19;;;;;;;12.30;4.53;;;8.10;99.90;;;;;;5032007;28;20400;-72
2021/10/22 01:00:44;;;;;;;13.70;4.20;;;8.00;99.90;;;;;;5032004;28;20430;-72
2021/10/22 01:03:10;;;;;;;13.23;4.53;;;8.00;99.90;;;;;;5028854;28;20400;-72
2021/10/22 01:05:36;;;;;;;9.23;3.93;;;8.00;99.90;;;;;;5012513;28;20181;-71
2021/10/22 01:08:04;;;;;;;13.70;5.47;;;8.00;99.90;;;;;;5012661;28;20831;-72
2021/10/22 01:10:30;;;;;;;6.33;4.00;;;8.00;99.90;;;;;;5019913;28;20447;-72
2021/10/22 01:12:57;;;;;;;11.50;4.20;;;8.00;99.90;;;;;;5031145;28;20912;-72
2021/10/22 01:15:22;;;;;;;12.83;4.60;;;8.00;99.90;;;;;;5032386;28;20680;-72
2021/10/22 01:17:48;;;;;;;11.20;3.83;;;8.00;99.90;;;;;;5032895;28;20411;-71
2021/10/22 01:20:16;;;;;;;8.93;3.90;;;8.00;99.90;;;;;;5035476;28;20429;-72
2021/10/22 01:22:43;;;;;;;9.47;4.57;;;8.00;99.90;;;;;;5035736;28;20215;-72
2021/10/22 01:25:13;;;;;;;17.53;5.00;;;8.10;99.90;;;;;;5035757;28;20450;-72
2021/10/22 01:27:39;;;;;;;11.37;4.33;;;8.10;99.90;;;;;;5035763;28;20576;-73
2021/10/22 01:30:06;;;;;;;15.60;7.03;;;8.10;99.90;;;;;;5027350;28;21043;-71
2021/10/22 01:32:32;;;;;;;18.57;4.80;;;8.10;99.90;;;;;;5035450;28;20555;-72
2021/10/22 01:34:58;;;;;;;6.53;4.13;;;8.20;99.90;;;;;;5035487;28;20406;-72
2021/10/22 01:37:23;;;;;;;10.03;3.63;;;8.10;99.90;;;;;;5035483;28;20164;-72
2021/10/22 01:39:49;;;;;;;10.27;3.70;;;8.10;99.90;;;;;;5035322;28;20180;-72
2021/10/22 01:42:16;;;;;;;12.90;5.00;;;8.10;99.90;;;;;;5018946;28;20186;-71
2021/10/22 01:44:41;;;;;;;12.70;4.77;;;8.10;99.90;;;;;;5035449;28;20403;-71
2021/10/22 01:47:07;;;;;;;10.53;3.80;;;8.10;99.90;;;;;;5034327;28;20435;-72
2021/10/22 01:49:33;;;;;;;10.90;4.10;;;8.00;99.90;;;;;;5035486;28;20644;-71
2021/10/22 01:51:58;;;;;;;6.93;3.17;;;8.00;99.90;;;;;;5034954;28;20202;-72
2021/10/22 01:54:24;;;;;;;15.23;5.57;;;8.00;99.90;;;;;;5035277;28;20522;-72
2021/10/22 01:56:50;;;;;;;11.80;4.60;;;7.90;99.90;;;;;;5035127;28;20157;-72
2021/10/22 01:59:15;;;;;;;10.87;3.87;;;7.90;99.90;;;;;;5034893;28;20145;-72
2021/10/22 02:01:41;;;;;;;9.90;3.80;;;7.90;99.90;;;;;;5035074;28;20656;-72
2021/10/22 02:04:06;;;;;;;8.13;4.00;;;7.80;99.90;;;;;;5023590;28;20178;-72
2021/10/22 02:06:32;;;;;;;18.03;4.40;;;7.80;99.90;;;;;;5015171;28;20172;-72
2021/10/22 02:08:57;;;;;;;10.60;3.83;;;7.80;99.90;;;;;;5015162;28;20166;-71
2021/10/22 02:11:23;;;;;;;11.47;3.57;;;7.80;99.90;;;;;;5015003;28;20283;-72
2021/10/22 02:13:49;;;;;;;10.30;3.50;;;7.80;99.90;;;;;;5029527;28;20200;-72
2021/10/22 02:16:15;;;;;;;13.43;3.73;;;7.80;99.90;;;;;;5034774;28;20521;-72
2021/10/22 02:18:41;;;;;;;8.40;3.10;;;7.80;99.90;;;;;;5035212;28;20426;-73
2021/10/22 02:21:06;;;;;;;10.63;3.60;;;7.80;99.90;;;;;;5023800;28;20463;-73
2021/10/22 02:23:32;;;;;;;10.60;3.43;;;7.80;99.90;;;;;;5014902;28;20162;-73
2021/10/22 02:25:57;;;;;;;7.00;3.50;;;7.80;99.90;;;;;;5015056;28;20526;-73
2021/10/22 02:28:23;;;;;;;10.80;4.53;;;7.70;99.90;;;;;;5032901;28;20687;-73
2021/10/22 02:30:48;;;;;;;8.03;3.77;;;7.70;99.90;;;;;;5034071;28;20205;-73
2021/10/22 02:33:14;;;;;;;14.47;4.20;;;7.60;99.90;;;;;;5034465;28;20167;-73
2021/10/22 02:35:40;;;;;;;11.03;3.80;;;7.60;99.90;;;;;;5034415;28;20525;-73
2021/10/22 02:38:06;;;;;;;7.57;2.80;;;7.50;99.90;;;;;;5023520;28;20185;-73
2021/10/22 02:40:31;;;;;;;7.93;3.70;;;7.50;99.90;;;;;;5025099;28;20424;-73
2021/10/22 02:42:57;;;;;;;11.80;3.90;;;7.50;99.90;;;;;;5034296;28;20435;-73
2021/10/22 02:45:23;;;;;;;8.73;3.77;;;7.50;99.90;;;;;;5034005;28;20203;-73
2021/10/22 02:47:48;;;;;;;20.07;4.43;;;7.40;99.90;;;;;;5034208;28;20693;-73
2021/10/22 02:50:17;;;;;;;8.60;3.47;;;7.40;99.90;;;;;;5034110;28;20210;-73
2021/10/22 02:52:42;;;;;;;17.73;4.03;;;7.40;99.90;;;;;;5033978;28;20279;-73
2021/10/22 02:55:08;;;;;;;21.30;5.00;;;7.30;99.90;;;;;;5022817;28;20506;-73
2021/10/22 02:57:33;;;;;;;13.50;4.30;;;7.30;99.90;;;;;;5014091;28;20264;-73
2021/10/22 02:59:59;;;;;;;12.60;4.17;;;7.30;99.90;;;;;;5019833;28;20183;-72
2021/10/22 03:02:25;;;;;;;11.47;3.43;;;7.30;99.90;;;;;;5033976;28;20165;-72
2021/10/22 03:04:50;;;;;;;10.47;4.10;;;7.20;99.90;;;;;;5034023;28;20511;-72
2021/10/22 03:07:16;;;;;;;10.07;4.00;;;7.20;99.90;;;;;;5033991;28;20626;-72
2021/10/22 03:09:42;;;;;;;7.03;3.77;;;7.20;99.90;;;;;;5033857;28;20539;-72
2021/10/22 03:12:07;;;;;;;10.73;3.87;;;7.20;99.90;;;;;;5021842;28;20318;-72
2021/10/22 03:14:33;;;;;;;11.87;3.80;;;7.10;99.90;;;;;;5013892;28;20214;-72
2021/10/22 03:16:59;;;;;;;9.10;4.33;;;7.10;99.90;;;;;;5013911;28;20618;-72
2021/10/22 03:19:24;;;;;;;21.70;5.03;;;7.10;99.90;;;;;;5028489;28;20636;-73
2021/10/22 03:21:50;;;;;;;10.17;3.30;;;7.10;99.90;;;;;;5033496;28;20412;-72
2021/10/22 03:24:15;;;;;;;12.97;3.73;;;7.10;99.90;;;;;;5033511;28;20224;-72
2021/10/22 03:26:41;;;;;;;12.67;3.70;;;7.00;99.90;;;;;;5033457;28;20194;-72
2021/10/22 03:29:06;;;;;;;7.10;4.00;;;7.00;99.90;;;;;;5022361;28;20194;-72
2021/10/22 03:31:32;;;;;;;11.73;4.93;;;7.00;99.90;;;;;;5013550;28;20222;-72
2021/10/22 03:33:59;;;;;;;11.80;4.23;;;7.00;99.90;;;;;;5013500;28;20168;-72
2021/10/22 03:36:24;;;;;;;10.33;3.87;;;7.00;99.90;;;;;;5013292;28;20605;-72
2021/10/22 03:38:50;;;;;;;9.83;3.50;;;6.90;99.90;;;;;;5027379;28;20516;-72
2021/10/22 03:41:16;;;;;;;10.50;4.10;;;6.90;99.90;;;;;;5028976;28;20924;-72
2021/10/22 03:43:41;;;;;;;16.67;5.20;;;6.90;99.90;;;;;;5032255;28;20233;-73
2021/10/22 03:46:07;;;;;;;12.70;4.00;;;6.90;99.90;;;;;;5021211;28;20460;-72
2021/10/22 03:48:33;;;;;;;9.70;3.83;;;6.90;99.90;;;;;;5013272;28;20561;-72
2021/10/22 03:50:58;;;;;;;12.73;5.10;;;6.90;99.90;;;;;;5013289;28;20239;-73
2021/10/22 03:53:24;;;;;;;12.10;4.50;;;6.90;99.90;;;;;;5013105;28;20528;-72
2021/10/22 03:55:49;;;;;;;18.03;4.13;;;6.90;99.90;;;;;;5013272;28;20161;-72
2021/10/22 03:58:18;;;;;;;11.97;4.43;;;6.90;99.90;;;;;;5013512;28;20636;-72
2021/10/22 04:00:45;;;;;;;8.23;3.60;;;6.80;99.90;;;;;;5013202;28;20505;-73
2021/10/22 04:03:10;;;;;;;7.73;3.37;;;6.80;99.90;;;;;;5021281;28;20422;-72
2021/10/22 04:05:36;;;;;;;9.67;3.77;;;6.80;99.90;;;;;;5013207;28;20406;-72
2021/10/22 04:08:01;;;;;;;7.47;3.50;;;6.80;99.90;;;;;;5012914;28;20163;-72
2021/10/22 04:10:27;;;;;;;11.80;4.13;;;6.80;99.90;;;;;;5012985;28;20174;-72
2021/10/22 04:12:52;;;;;;;12.87;4.07;;;6.80;99.90;;;;;;5012922;28;20630;-71
2021/10/22 04:15:18;;;;;;;11.07;3.60;;;6.80;99.90;;;;;;5012964;28;20161;-72
2021/10/22 04:17:44;;;;;;;5.50;2.87;;;6.70;99.90;;;;;;5015998;28;20172;-72
2021/10/22 04:20:10;;;;;;;9.13;3.07;;;6.70;99.90;;;;;;5021204;28;20175;-71
2021/10/22 04:22:35;;;;;;;8.73;3.40;;;6.70;99.90;;;;;;5012683;28;20217;-72
2021/10/22 04:25:02;;;;;;;8.20;3.20;;;6.70;99.90;;;;;;5012746;28;20758;-72
2021/10/22 04:27:32;;;;;;;8.90;3.87;;;6.70;99.90;;;;;;5026653;28;20178;-73
2021/10/22 04:29:59;;;;;;;12.00;3.30;;;6.70;99.90;;;;;;5031898;28;20434;-72
2021/10/22 04:32:25;;;;;;;14.57;4.03;;;6.70;99.90;;;;;;5032376;28;20468;-73
2021/10/22 04:34:50;;;;;;;10.40;3.40;;;6.70;99.90;;;;;;5032517;28;20460;-72
2021/10/22 04:42:50;;;;;;;16.53;5.80;;;6.70;99.90;;;;;;5011637;28;20419;-72
2021/10/22 04:45:18;;;;;;;10.53;3.90;;;6.70;99.90;;;;;;5012964;28;20419;-72
2021/10/22 04:47:44;;;;;;;15.90;4.20;;;6.60;99.90;;;;;;5012615;28;20430;-72
2021/10/22 04:50:11;;;;;;;14.80;3.70;;;6.70;99.90;;;;;;5012604;28;20400;-72
2021/10/22 04:52:37;;;;;;;6.60;3.30;;;6.60;99.90;;;;;;5013179;28;20260;-73
2021/10/22 04:55:05;;;;;;;8.93;3.70;;;6.60;99.90;;;;;;5024060;28;20425;-72
2021/10/22 04:57:30;;;;;;;7.33;3.30;;;6.60;99.90;;;;;;5036311;28;20405;-72
2021/10/22 04:59:56;;;;;;;10.97;3.80;;;6.60;99.90;;;;;;5036186;28;20398;-72
2021/10/22 05:02:21;;;;;;;21.97;4.20;;;6.60;99.90;;;;;;5036368;28;20204;-72
2021/10/22 05:04:47;;;;;;;9.67;3.70;;;6.60;99.90;;;;;;5036380;28;20158;-72
2021/10/22 05:07:12;;;;;;;9.03;3.67;;;6.60;99.90;;;;;;5036228;28;20171;-72
2021/10/22 05:09:38;;;;;;;12.33;4.50;;;6.60;99.90;;;;;;5036126;28;20165;-72
2021/10/22 05:12:06;;;;;;;9.97;3.97;;;6.60;99.90;;;;;;5017074;28;20210;-72
2021/10/22 05:14:33;;;;;;;12.50;3.93;;;6.50;99.90;;;;;;5016279;28;20506;-72
2021/10/22 05:16:59;;;;;;;8.20;4.93;;;6.50;99.90;;;;;;5016018;28;20484;-72
2021/10/22 05:19:24;;;;;;;12.73;4.30;;;6.50;99.90;;;;;;5016486;28;20408;-72
2021/10/22 05:21:50;;;;;;;8.60;4.50;;;6.60;99.90;;;;;;5022274;28;20801;-72
2021/10/22 05:24:15;;;;;;;9.23;3.60;;;6.60;99.90;;;;;;5035762;28;20175;-72
2021/10/22 05:26:41;;;;;;;6.97;3.50;;;6.60;99.90;;;;;;5035340;28;20168;-72
2021/10/22 05:29:06;;;;;;;8.73;3.50;;;6.70;99.90;;;;;;5034550;28;20183;-72
2021/10/22 05:31:32;;;;;;;13.80;4.43;;;6.80;99.90;;;;;;5035356;28;20265;-72
2021/10/22 05:33:58;;;;;;;12.47;3.83;;;6.80;99.90;;;;;;5035114;28;20160;-73
2021/10/22 05:36:24;;;;;;;13.20;4.53;;;6.80;99.90;;;;;;5034667;28;20179;-72
2021/10/22 05:38:51;;;;;;;7.63;4.40;;;6.90;99.90;;;;;;5033261;28;20180;-72
2021/10/22 05:41:17;;;;;;;10.47;4.13;;;7.00;99.90;;;;;;5029389;28;20414;-73
2021/10/22 05:43:42;;;;;;;8.83;3.87;;;7.00;99.90;;;;;;5032940;28;20413;-73
2021/10/22 05:46:08;;;;;;;13.17;5.37;;;7.00;99.90;;;;;;5016151;28;20187;-72
2021/10/22 05:48:34;;;;;;;7.90;3.53;;;7.10;99.90;;;;;;5015054;28;20165;-72
2021/10/22 05:51:00;;;;;;;10.70;3.37;;;7.10;99.90;;;;;;5024623;28;20683;-72
2021/10/22 05:53:26;;;;;;;12.20;4.77;;;7.10;99.90;;;;;;5034765;28;20442;-72
2021/10/22 05:55:52;;;;;;;15.60;4.70;;;7.10;99.90;;;;;;5035094;28;20417;-73
2021/10/22 05:58:17;;;;;;;6.10;3.50;;;7.10;99.90;;;;;;5033160;28;20486;-72
2021/10/22 06:00:43;;;;;;;14.43;4.50;;;7.10;99.90;;;;;;5033526;28;20166;-75
2021/10/22 06:03:09;;;;;;;7.70;4.10;;;7.10;99.90;;;;;;5013957;28;20177;-72
2021/10/22 06:05:38;;;;;;;6.00;3.63;;;7.10;99.90;;;;;;5014366;28;20433;-72
2021/10/22 06:08:05;;;;;;;8.93;3.70;;;7.10;99.90;;;;;;5014779;28;20872;-73
2021/10/22 06:10:30;;;;;;;8.80;3.53;;;7.00;99.90;;;;;;5015050;28;20423;-72
2021/10/22 06:12:56;;;;;;;14.57;3.93;;;7.00;99.90;;;;;;5014898;28;20861;-73
2021/10/22 06:15:22;;;;;;;14.30;4.47;;;6.90;99.90;;;;;;5029849;28;20211;-73
2021/10/22 06:17:47;;;;;;;11.20;4.20;;;6.90;99.90;;;;;;5020699;28;20279;-73
2021/10/22 06:20:22;;;;;;;13.63;5.07;;;6.90;99.90;;;;;;5020936;28;20594;-75
2021/10/22 06:23:53;;;;;;;7.23;3.80;;;6.90;99.90;;;;;;5027374;28;20178;-74
2021/10/22 06:25:33;;;;;;;14.00;5.07;;;6.90;99.90;;;;;;5030604;28;20749;-74
2021/10/22 06:27:58;;;;;;;11.40;4.37;;;6.80;99.90;;;;;;5032925;28;20422;-74
2021/10/22 06:30:24;;;;;;;7.73;4.23;;;6.80;99.90;;;;;;5029449;28;20172;-73
2021/10/22 06:32:49;;;;;;;9.20;4.33;;;6.80;99.90;;;;;;5033100;28;20538;-73
2021/10/22 06:35:15;;;;;;;9.30;4.30;;;6.80;99.90;;;;;;5029605;28;20702;-73
2021/10/22 06:37:41;;;;;;;10.83;4.97;;;6.80;99.90;;;;;;5027862;28;20555;-73
2021/10/22 06:40:07;;;;;;;9.17;4.33;;;6.90;99.90;;;;;;5020095;28;20171;-75
2021/10/22 06:42:33;;;;;;;7.23;4.10;;;6.90;99.90;;;;;;5015462;28;20272;-74
2021/10/22 06:44:58;;;;;;;10.17;4.30;;;6.90;99.90;;;;;;5020958;28;20534;-74
2021/10/22 06:47:24;;;;;;;6.90;4.20;;;6.90;99.90;;;;;;5021336;28;20671;-74
2021/10/22 06:49:49;;;;;;;7.93;4.70;;;6.90;99.90;;;;;;5014363;28;20220;-75
2021/10/22 06:52:15;;;;;;;10.47;4.40;;;6.90;99.90;;;;;;5016844;28;20232;-75
2021/10/22 06:54:40;;;;;;;11.30;3.67;;;6.90;99.90;;;;;;5030701;28;20541;-74
2021/10/22 06:57:06;;;;;;;8.70;4.40;;;6.90;99.90;;;;;;5022949;28;20221;-73
2021/10/22 06:59:31;;;;;;;8.30;4.00;;;7.00;99.90;;;;;;5023234;28;20246;-73
2021/10/22 07:01:57;;;;;;;6.80;4.03;;;7.10;99.90;;;;;;5030191;28;20275;-74
2021/10/22 07:04:23;;;;;;;11.90;3.63;;;7.10;99.90;;;;;;5032408;28;20523;-72
2021/10/22 07:09:34;;;;;;;10.90;3.30;;;7.20;99.90;;;;;;5016471;28;20553;-73
2021/10/22 07:12:00;;;;;;;7.77;3.60;;;7.30;99.90;;;;;;5028996;28;20457;-73
2021/10/22 07:14:30;;;;;;;10.27;3.80;;;7.40;99.90;;;;;;5030273;28;20186;-75
2021/10/22 07:16:56;;;;;;;7.87;3.40;;;7.50;99.90;;;;;;5023877;28;20966;-74
2021/10/22 07:19:22;;;;;;;8.70;4.13;;;7.50;99.90;;;;;;5022048;28;20439;-75
2021/10/22 07:21:50;;;;;;;12.77;3.60;;;7.60;99.90;;;;;;5017106;28;20594;-75
2021/10/22 07:24:21;;;;;;;7.10;3.20;;;7.60;99.90;;;;;;5018128;28;20267;-73
2021/10/22 07:26:47;;;;;;;8.43;3.43;;;7.70;99.90;;;;;;5019251;28;20446;-74
2021/10/22 07:29:13;;;;;;;8.80;3.83;;;7.70;99.90;;;;;;5018257;28;20936;-73
2021/10/22 07:31:39;;;;;;;11.73;3.57;;;7.80;99.90;;;;;;5024898;28;20215;-75
2021/10/22 07:34:05;;;;;;;9.17;3.53;;;7.90;99.90;;;;;;5017638;28;20775;-74
2021/10/22 07:36:31;;;;;;;6.70;3.30;;;8.00;99.90;;;;;;5023854;28;20188;-75
2021/10/22 07:38:56;;;;;;;11.37;3.87;;;8.10;99.90;;;;;;5034116;28;20246;-73
2021/10/22 07:41:22;;;;;;;7.67;3.13;;;8.20;99.90;;;;;;5032004;28;20177;-75
2021/10/22 07:43:48;;;;;;;7.50;2.93;;;8.30;99.90;;;;;;5028395;28;20211;-74
2021/10/22 07:46:13;;;;;;;6.70;3.27;;;8.40;99.90;;;;;;5028645;28;20454;-74
2021/10/22 07:48:41;;;;;;;6.00;3.30;;;8.40;99.90;;;;;;5023424;28;20242;-75
2021/10/22 07:51:07;;;;;;;11.80;4.07;;;8.60;99.90;;;;;;5025348;28;20200;-75
2021/10/22 07:53:32;;;;;;;9.27;3.10;;;8.60;99.90;;;;;;5025018;28;20546;-72
2021/10/22 07:55:58;;;;;;;7.23;3.33;;;8.70;99.90;;;;;;5024638;28;20254;-73
2021/10/22 07:58:23;;;;;;;10.30;3.40;;;8.80;99.90;;;;;;5022668;28;20293;-74
2021/10/22 08:00:50;;;;;;;8.57;3.10;;;8.80;99.90;;;;;;5020706;28;20193;-73
2021/10/22 08:03:15;;;;;;;7.80;2.70;;;8.80;99.90;;;;;;5020170;28;20186;-74
2021/10/22 08:05:41;;;;;;;8.07;4.30;;;8.90;99.90;;;;;;5028397;28;20793;-72
2021/10/22 08:08:11;;;;;;;5.80;3.13;;;8.90;99.90;;;;;;5025590;28;20243;-72
2021/10/22 08:10:37;;;;;;;7.33;3.10;;;9.00;99.90;;;;;;5036053;28;20642;-72
2021/10/22 08:13:05;;;;;;;7.90;3.33;;;9.10;99.90;;;;;;5028268;28;20970;-72
2021/10/22 08:15:30;;;;;;;8.53;3.30;;;9.20;99.90;;;;;;5023404;28;20986;-74
2021/10/22 08:17:57;;;;;;;10.43;3.57;;;9.20;99.90;;;;;;5028493;28;20532;-71
2021/10/22 08:20:24;;;;;;;5.50;2.90;;;9.20;99.90;;;;;;5014118;28;20181;-74
2021/10/22 08:22:50;;;;;;;6.77;3.60;;;9.30;99.90;;;;;;5011823;28;20443;-75
2021/10/22 08:25:18;;;;;;;7.20;2.80;;;9.30;99.90;;;;;;5016496;28;20434;-73
2021/10/22 08:27:46;;;;;;;8.30;3.13;;;9.40;99.90;;;;;;5032481;28;20410;-73
2021/10/22 08:30:16;;;;;;;8.20;3.37;;;9.50;99.90;;;;;;5031393;28;20475;-71
2021/10/22 08:32:47;;;;;;;7.40;2.90;;;9.50;99.90;;;;;;5032136;28;20839;-74
2021/10/22 08:35:12;;;;;;;11.20;3.23;;;9.60;99.90;;;;;;5020401;28;20499;-74
2021/10/22 08:37:39;;;;;;;6.87;2.80;;;9.70;99.90;;;;;;5011912;28;20892;-74
2021/10/22 08:40:06;;;;;;;9.23;3.07;;;9.80;99.90;;;;;;5022450;28;20171;-74
2021/10/22 08:42:32;;;;;;;6.50;2.90;;;9.90;99.90;;;;;;5018714;28;20447;-74
2021/10/22 08:44:58;;;;;;;9.83;3.07;;;10.00;99.90;;;;;;5012831;28;20409;-73
2021/10/22 08:47:29;;;;;;;9.27;2.70;;;10.10;99.90;;;;;;5012804;28;20764;-74
2021/10/22 08:49:57;;;;;;;8.70;3.00;;;10.10;99.90;;;;;;5012099;28;20411;-73
2021/10/22 08:52:24;;;;;;;5.73;2.57;;;10.10;99.90;;;;;;5013230;28;20872;-73
2021/10/22 08:54:49;;;;;;;8.97;2.53;;;10.10;99.90;;;;;;5012473;28;20388;-74
2021/10/22 08:57:15;;;;;;;8.53;2.80;;;10.10;99.90;;;;;;5019423;28;20580;-74
2021/10/22 08:59:41;;;;;;;5.60;2.73;;;10.10;99.90;;;;;;5028531;28;20220;-71
2021/10/22 09:05:07;;;;;;;8.23;2.37;;;10.10;99.90;;;;;;5069026;28;20521;-70
2021/10/22 09:07:52;;;;;;;12.90;3.47;;;10.20;99.90;;;;;;5063875;28;20438;-70
2021/10/22 09:12:57;;;;;;;11.03;3.20;;;10.30;99.90;;;;;;5114156;27;20508;-69
2021/10/22 09:15:26;;;;;;;8.93;2.70;;;10.40;99.90;;;;;;5121677;28;20429;-71
2021/10/22 09:17:54;;;;;;;7.57;2.20;;;10.40;99.90;;;;;;5121885;28;20444;-70
2021/10/22 09:20:22;;;;;;;7.43;2.87;;;10.40;99.90;;;;;;5121407;28;20428;-70
2021/10/22 09:22:51;;;;;;;6.10;3.30;;;10.40;99.90;;;;;;5129140;28;20409;-70
2021/10/22 09:25:21;;;;;;;8.57;4.07;;;10.50;99.90;;;;;;5124556;28;20541;-70
2021/10/22 09:27:53;;;;;;;14.63;3.53;;;10.60;99.90;;;;;;5121069;28;20430;-70
2021/10/22 09:30:37;;;;;;;5.13;3.03;;;10.60;99.90;;;;;;5123298;28;20533;-70
2021/10/22 09:33:22;;;;;;;9.63;2.80;;;10.60;99.90;;;;;;5128782;28;20471;-71
2021/10/22 09:35:51;;;;;;;5.60;2.77;;;10.70;99.90;;;;;;5129709;28;20447;-71
2021/10/22 09:43:37;;;;;;;4.77;2.03;;;10.80;99.90;;;;;;5068789;28;20525;-71
2021/10/22 09:46:09;;;;;;;7.00;3.03;;;11.00;99.90;;;;;;5080293;28;20463;-71
2021/10/22 09:48:36;;;;;;;6.60;2.97;;;11.00;99.90;;;;;;5066886;28;20516;-71
2021/10/22 09:54:09;;;;;;;6.67;2.60;;;11.10;99.90;;;;;;5069081;28;20630;-71
2021/10/22 09:56:38;;;;;;;8.57;2.60;;;11.20;99.90;;;;;;5069196;28;20445;-71
2021/10/22 09:59:06;;;;;;;6.67;2.27;;;11.20;99.90;;;;;;5067269;28;20403;-71
2021/10/22 10:04:26;;;;;;;7.10;2.53;;;11.20;99.90;;;;;;5088232;28;20939;-70
2021/10/22 10:06:53;;;;;;;12.73;3.27;;;11.20;99.90;;;;;;5078308;28;20425;-70
2021/10/22 10:09:21;;;;;;;5.83;2.23;;;11.20;99.90;;;;;;5068090;28;20864;-71
2021/10/22 10:11:48;;;;;;;6.20;2.40;;;11.30;99.90;;;;;;5069435;28;20460;-70
2021/10/22 10:14:16;;;;;;;8.30;2.80;;;11.30;99.90;;;;;;5069019;28;20443;-70
2021/10/22 10:16:44;;;;;;;6.33;2.70;;;11.40;99.90;;;;;;5067950;28;20422;-70
2021/10/22 10:19:19;;;;;;;7.20;2.17;;;11.50;99.90;;;;;;5068798;28;20397;-70
2021/10/22 10:21:48;;;;;;;11.27;2.50;;;11.70;99.90;;;;;;5078880;28;20948;-70
2021/10/22 10:24:18;;;;;;;6.47;2.60;;;11.80;99.90;;;;;;5071180;28;20457;-70
2021/10/22 10:26:44;;;;;;;9.80;3.20;;;11.90;99.90;;;;;;5063480;28;20777;-70
2021/10/22 10:29:26;;;;;;;4.13;2.30;;;11.90;99.90;;;;;;5064923;28;20426;-70
2021/10/22 10:32:00;;;;;;;14.17;2.90;;;11.90;99.90;;;;;;5061167;28;20422;-69
2021/10/22 10:37:05;;;;;;;6.87;2.40;;;11.80;99.90;;;;;;5046049;28;20534;-71
2021/10/22 10:39:53;;;;;;;9.00;2.70;;;11.80;99.90;;;;;;5014008;28;20432;-71
2021/10/22 10:56:23;;;;;;;6.07;2.77;;;11.90;99.90;;;;;;5048928;28;20651;-70
2021/10/22 10:58:48;;;;;;;6.30;2.60;;;11.90;99.90;;;;;;5049174;28;20466;-70
2021/10/22 11:03:58;;;;;;;5.10;2.00;;;11.90;99.90;;;;;;5069303;28;20504;-70
2021/10/22 11:06:50;;;;;;;6.40;2.77;;;12.10;99.90;;;;;;5069290;28;20414;-70
2021/10/22 11:12:12;;;;;;;6.07;2.30;;;12.20;99.90;;;;;;5068431;28;20504;-71
2021/10/22 11:14:42;;;;;;;10.47;2.10;;;12.20;99.90;;;;;;5068323;28;20901;-71
2021/10/22 11:17:09;;;;;;;6.07;2.77;;;12.20;99.90;;;;;;5061433;28;20255;-71
2021/10/22 11:19:38;;;;;;;6.53;2.90;;;12.30;99.90;;;;;;5069195;28;20497;-71
2021/10/22 11:22:10;;;;;;;7.60;2.73;;;12.40;99.90;;;;;;5069161;28;20444;-71
2021/10/22 11:24:38;;;;;;;5.80;2.67;;;12.50;99.90;;;;;;5056747;28;20407;-71
2021/10/22 11:27:09;;;;;;;3.73;2.00;;;12.50;99.90;;;;;;5054834;28;20406;-71
2021/10/22 11:29:38;;;;;;;6.17;2.90;;;12.60;99.90;;;;;;5068725;28;20909;-72
2021/10/22 11:32:11;;;;;;;4.70;1.90;;;12.70;99.90;;;;;;5059771;28;20455;-71
2021/10/22 11:34:39;;;;;;;8.43;2.23;;;12.80;99.90;;;;;;5068499;28;20410;-71
2021/10/22 11:37:09;;;;;;;5.03;1.80;;;12.80;99.90;;;;;;5068942;28;20764;-71
2021/10/22 11:39:39;;;;;;;8.47;2.23;;;12.70;99.90;;;;;;5067699;28;20779;-71
2021/10/22 11:42:27;;;;;;;4.13;2.37;;;12.70;99.90;;;;;;5059370;28;20521;-71
2021/10/22 11:44:59;;;;;;;5.17;2.10;;;12.60;99.90;;;;;;5048081;28;20413;-71
2021/10/22 11:50:23;;;;;;;8.10;2.60;;;12.60;99.90;;;;;;5069058;28;20550;-70
2021/10/22 11:53:02;;;;;;;4.13;2.20;;;12.50;99.90;;;;;;5068720;28;20489;-71
2021/10/22 11:55:28;;;;;;;9.27;4.00;;;12.40;99.90;;;;;;5060670;28;20403;-70
2021/10/22 11:57:56;;;;;;;7.83;2.23;;;12.40;99.90;;;;;;5061966;28;20906;-71
2021/10/22 12:00:22;;;;;;;8.80;2.27;;;12.30;99.90;;;;;;5068646;28;20420;-71
2021/10/22 12:02:48;;;;;;;5.07;2.20;;;12.30;99.90;;;;;;5069279;28;20781;-71
2021/10/22 12:05:14;;;;;;;6.73;2.37;;;12.30;99.90;;;;;;5069316;28;20386;-71
2021/10/22 12:07:44;;;;;;;7.07;2.47;;;12.30;99.90;;;;;;5069152;28;20162;-71
2021/10/22 12:10:13;;;;;;;6.33;2.40;;;12.30;99.90;;;;;;5067647;28;20451;-71
2021/10/22 12:12:44;;;;;;;6.97;2.10;;;12.20;99.90;;;;;;5068928;28;20744;-71
2021/10/22 12:15:13;;;;;;;6.23;2.77;;;12.20;99.90;;;;;;5065052;28;20415;-71
2021/10/22 12:17:39;;;;;;;5.90;2.60;;;12.20;99.90;;;;;;5048378;28;20468;-71
2021/10/22 12:20:06;;;;;;;6.60;1.93;;;12.20;99.90;;;;;;5048616;28;20833;-71
2021/10/22 12:22:44;;;;;;;5.57;2.13;;;12.20;99.90;;;;;;5058010;28;20320;-71
2021/10/22 12:25:20;;;;;;;6.93;2.43;;;12.20;99.90;;;;;;5067888;28;20430;-71
2021/10/22 12:27:50;;;;;;;6.37;1.97;;;12.10;99.90;;;;;;5068806;28;20381;-71
2021/10/22 12:30:18;;;;;;;12.57;3.13;;;12.10;99.90;;;;;;5068124;28;20413;-71
2021/10/22 12:32:48;;;;;;;7.10;2.17;;;12.00;99.90;;;;;;5061294;28;20510;-71
2021/10/22 12:40:40;;;;;;;6.13;2.53;;;11.90;99.90;;;;;;5051242;28;20533;-70
2021/10/22 12:46:03;;;;;;;6.33;2.63;;;11.90;99.90;;;;;;5109683;27;20642;-70
2021/10/22 12:51:09;;;;;;;7.17;3.20;;;11.80;99.90;;;;;;5050075;28;20554;-70
2021/10/22 12:53:39;;;;;;;7.17;2.70;;;11.60;99.90;;;;;;5048124;28;20485;-70
2021/10/22 12:56:10;;;;;;;5.10;2.60;;;11.60;99.90;;;;;;5048057;28;20946;-70
2021/10/22 12:58:38;;;;;;;7.80;2.50;;;11.50;99.90;;;;;;5049269;28;20805;-71
2021/10/22 13:03:47;;;;;;;4.73;2.50;;;11.50;99.90;;;;;;5088953;28;20635;-70
2021/10/22 13:22:26;;;;;;;7.87;3.17;;;11.60;99.90;;;;;;5095041;28;20908;-71
2021/10/22 13:24:54;;;;;;;8.10;3.57;;;11.70;99.90;;;;;;5100046;28;20510;-71
2021/10/22 13:27:22;;;;;;;7.10;2.40;;;11.70;99.90;;;;;;5110625;28;20166;-71
2021/10/22 13:29:52;;;;;;;10.13;2.80;;;11.80;99.90;;;;;;5109411;28;20408;-71
2021/10/22 13:32:18;;;;;;;10.27;2.37;;;11.80;99.90;;;;;;5088615;28;20965;-71
2021/10/22 13:34:43;;;;;;;8.60;3.47;;;11.90;99.90;;;;;;5088746;28;20401;-71
2021/10/22 13:37:09;;;;;;;6.37;2.80;;;11.90;99.90;;;;;;5089950;28;20152;-71
2021/10/22 13:39:34;;;;;;;3.30;1.97;;;11.90;99.90;;;;;;5087898;28;20238;-72
2021/10/22 13:42:02;;;;;;;5.70;2.57;;;12.00;99.90;;;;;;5090140;28;20195;-71
2021/10/22 13:44:27;;;;;;;7.20;3.40;;;12.00;99.90;;;;;;5089309;28;20166;-71
2021/10/22 13:46:53;;;;;;;7.17;2.60;;;12.10;99.90;;;;;;5087904;28;20393;-71
2021/10/22 13:49:18;;;;;;;8.47;2.33;;;12.20;99.90;;;;;;5089257;28;20151;-71
2021/10/22 13:51:44;;;;;;;6.27;2.30;;;12.20;99.90;;;;;;5089009;28;20232;-71
2021/10/22 13:54:10;;;;;;;9.00;3.30;;;12.20;99.90;;;;;;5090505;28;20195;-71
2021/10/22 13:56:37;;;;;;;7.13;3.20;;;12.30;99.90;;;;;;5109652;28;20159;-71
2021/10/22 13:59:02;;;;;;;7.67;2.90;;;12.30;99.90;;;;;;5089191;28;20175;-72
2021/10/22 14:01:28;;;;;;;6.33;2.50;;;12.20;99.90;;;;;;5108858;28;20423;-71
2021/10/22 14:03:53;;;;;;;6.13;2.60;;;12.20;99.90;;;;;;5109550;28;20599;-71
2021/10/22 14:06:19;;;;;;;7.30;3.13;;;12.20;99.90;;;;;;5109232;28;20557;-71
2021/10/22 14:08:44;;;;;;;3.63;1.97;;;12.20;99.90;;;;;;5108579;28;20484;-71
2021/10/22 14:11:14;;;;;;;6.20;2.87;;;12.20;99.90;;;;;;5108788;28;20166;-71